Time;durP1;ratioP1;P1;durP2;ratioP2;P2;SDS_P1;SDS_P2;PMS_P1;PMS_P2;Temp;Humidity;BMP_temperature;BMP_pressure;BME280_temperature;BME280_humidity;BME280_pressure;Samples;Min_cycle;Max_cycle;Signal;HPM_P1;HPM_P2
2021/06/25 00:02:01;;;;;;;6.60;4.95;;;;;;;;;;4921800;29;20079;-79
2021/06/25 00:04:27;;;;;;;7.68;5.00;;;;;;;;;;4926427;28;20068;-79
2021/06/25 00:06:54;;;;;;;6.68;4.90;;;;;;;;;;4926431;29;20067;-80
2021/06/25 00:09:20;;;;;;;6.47;5.00;;;;;;;;;;4924407;28;20489;-79
2021/06/25 00:11:47;;;;;;;7.43;4.65;;;;;;;;;;4920679;28;20070;-80
2021/06/25 00:14:20;;;;;;;6.05;4.60;;;;;;;;;;4923256;28;20518;-79
2021/06/25 00:16:46;;;;;;;6.80;4.57;;;;;;;;;;4926095;28;20071;-77
2021/06/25 00:19:13;;;;;;;7.43;4.78;;;;;;;;;;4917941;28;20830;-79
2021/06/25 00:21:39;;;;;;;7.00;4.78;;;;;;;;;;4928291;28;20078;-81
2021/06/25 00:24:06;;;;;;;5.65;4.50;;;;;;;;;;4927735;28;20064;-79
2021/06/25 00:26:32;;;;;;;6.57;4.43;;;;;;;;;;4926737;28;20066;-79
2021/06/25 00:28:58;;;;;;;6.72;4.72;;;;;;;;;;4927643;28;20051;-79
2021/06/25 00:31:25;;;;;;;7.40;4.90;;;;;;;;;;4924295;28;20111;-78
2021/06/25 00:33:51;;;;;;;5.03;4.22;;;;;;;;;;4928018;28;20090;-76
2021/06/25 00:36:18;;;;;;;8.13;4.65;;;;;;;;;;4926530;28;20066;-76
2021/06/25 00:38:44;;;;;;;7.03;4.40;;;;;;;;;;4922125;28;20458;-76
2021/06/25 00:41:10;;;;;;;6.53;4.63;;;;;;;;;;4923066;28;20071;-76
2021/06/25 00:43:40;;;;;;;10.48;4.40;;;;;;;;;;4926105;28;20087;-75
2021/06/25 00:46:07;;;;;;;7.68;4.57;;;;;;;;;;4932935;29;20063;-75
2021/06/25 00:48:33;;;;;;;7.82;4.32;;;;;;;;;;4928547;28;20059;-76
2021/06/25 00:51:00;;;;;;;6.57;4.55;;;;;;;;;;4927269;28;20111;-79
2021/06/25 00:53:29;;;;;;;6.22;4.38;;;;;;;;;;4932904;28;20110;-77
2021/06/25 00:55:55;;;;;;;6.47;4.10;;;;;;;;;;4930158;28;20281;-77
2021/06/25 00:58:23;;;;;;;6.43;4.20;;;;;;;;;;4929280;28;20082;-77
2021/06/25 01:00:49;;;;;;;5.65;4.50;;;;;;;;;;4928721;28;20067;-77
2021/06/25 01:03:16;;;;;;;5.45;4.05;;;;;;;;;;4927079;28;20063;-78
2021/06/25 01:05:43;;;;;;;6.63;4.15;;;;;;;;;;4928599;28;20082;-78
2021/06/25 01:08:10;;;;;;;6.10;3.92;;;;;;;;;;4932900;28;20063;-78
2021/06/25 01:10:37;;;;;;;4.97;3.97;;;;;;;;;;4929723;28;20142;-77
2021/06/25 01:13:03;;;;;;;5.50;3.90;;;;;;;;;;4932201;28;20523;-77
2021/06/25 01:15:30;;;;;;;5.20;4.05;;;;;;;;;;4930764;29;20497;-79
2021/06/25 01:17:56;;;;;;;5.97;3.80;;;;;;;;;;4931296;28;20059;-77
2021/06/25 01:20:24;;;;;;;5.78;4.10;;;;;;;;;;4932519;28;20066;-77
2021/06/25 01:22:51;;;;;;;5.93;4.35;;;;;;;;;;4930474;29;20201;-78
2021/06/25 01:25:17;;;;;;;6.03;3.63;;;;;;;;;;4931323;28;20052;-77
2021/06/25 01:27:45;;;;;;;8.25;4.47;;;;;;;;;;4929059;28;20047;-77
2021/06/25 01:30:13;;;;;;;5.18;4.10;;;;;;;;;;4929292;28;20115;-76
2021/06/25 01:32:40;;;;;;;5.60;4.10;;;;;;;;;;4945367;28;20107;-77
2021/06/25 01:35:07;;;;;;;4.72;3.80;;;;;;;;;;4930119;29;20063;-76
2021/06/25 01:37:34;;;;;;;4.50;3.45;;;;;;;;;;4930002;28;20067;-78
2021/06/25 01:40:00;;;;;;;5.15;3.58;;;;;;;;;;4927792;28;20443;-78
2021/06/25 01:42:27;;;;;;;4.85;3.67;;;;;;;;;;4930779;28;20059;-76
2021/06/25 01:44:57;;;;;;;6.00;3.38;;;;;;;;;;4929418;28;20685;-77
2021/06/25 01:47:24;;;;;;;4.57;3.40;;;;;;;;;;4930830;28;20074;-77
2021/06/25 01:49:50;;;;;;;6.35;3.65;;;;;;;;;;4928174;28;20063;-78
2021/06/25 01:52:17;;;;;;;4.53;3.38;;;;;;;;;;4930601;28;20518;-77
2021/06/25 01:54:44;;;;;;;4.85;3.40;;;;;;;;;;4928408;28;20071;-78
2021/06/25 01:57:10;;;;;;;5.22;3.72;;;;;;;;;;4932003;28;20502;-76
2021/06/25 01:59:37;;;;;;;6.32;3.60;;;;;;;;;;4920917;28;20082;-76
2021/06/25 02:02:03;;;;;;;6.15;3.20;;;;;;;;;;4929660;28;20055;-77
2021/06/25 02:04:30;;;;;;;5.07;3.33;;;;;;;;;;4930628;28;20059;-77
2021/06/25 02:06:56;;;;;;;4.85;3.35;;;;;;;;;;4930561;28;20052;-77
2021/06/25 02:09:23;;;;;;;4.50;3.33;;;;;;;;;;4945389;29;20515;-77
2021/06/25 02:11:49;;;;;;;4.35;3.35;;;;;;;;;;4929681;28;20082;-78
2021/06/25 02:14:17;;;;;;;4.47;3.10;;;;;;;;;;4929693;28;20110;-77
2021/06/25 02:16:44;;;;;;;5.28;3.92;;;;;;;;;;4920989;28;20031;-77
2021/06/25 02:19:10;;;;;;;6.82;3.67;;;;;;;;;;4929869;28;20459;-78
2021/06/25 02:21:37;;;;;;;5.65;3.42;;;;;;;;;;4928993;28;20063;-78
2021/06/25 02:24:03;;;;;;;4.43;3.50;;;;;;;;;;4927877;28;20059;-77
2021/06/25 02:26:29;;;;;;;4.28;3.17;;;;;;;;;;4929022;28;20059;-79
2021/06/25 02:28:56;;;;;;;5.43;3.40;;;;;;;;;;4928462;28;20068;-77
2021/06/25 02:31:22;;;;;;;4.25;3.47;;;;;;;;;;4927994;29;20067;-78
2021/06/25 02:33:49;;;;;;;6.13;4.20;;;;;;;;;;4928676;28;20059;-77
2021/06/25 02:36:15;;;;;;;5.47;3.53;;;;;;;;;;4922084;29;20064;-77
2021/06/25 02:38:41;;;;;;;5.15;3.42;;;;;;;;;;4924095;29;20582;-77
2021/06/25 02:41:08;;;;;;;5.45;3.75;;;;;;;;;;4928991;28;20118;-77
2021/06/25 02:43:35;;;;;;;4.60;3.45;;;;;;;;;;4928430;28;20574;-76
2021/06/25 02:46:01;;;;;;;4.38;3.47;;;;;;;;;;4928038;29;20908;-77
2021/06/25 02:48:27;;;;;;;5.70;3.60;;;;;;;;;;4929588;28;20059;-76
2021/06/25 02:50:54;;;;;;;5.80;3.28;;;;;;;;;;4928053;28;20038;-76
2021/06/25 02:53:20;;;;;;;4.45;3.22;;;;;;;;;;4944849;28;20059;-76
2021/06/25 02:55:50;;;;;;;5.07;3.70;;;;;;;;;;4927614;28;20067;-76
2021/06/25 02:58:18;;;;;;;5.50;3.72;;;;;;;;;;4930364;28;20082;-76
2021/06/25 03:00:44;;;;;;;5.03;3.33;;;;;;;;;;4927884;28;20079;-76
2021/06/25 03:03:11;;;;;;;5.22;3.60;;;;;;;;;;4929588;28;20142;-77
2021/06/25 03:05:37;;;;;;;5.38;3.42;;;;;;;;;;4927111;28;20055;-74
2021/06/25 03:08:03;;;;;;;4.40;3.08;;;;;;;;;;4927327;28;20067;-76
2021/06/25 03:10:30;;;;;;;5.18;3.42;;;;;;;;;;4935724;28;20067;-76
2021/06/25 03:12:56;;;;;;;10.00;3.45;;;;;;;;;;4924641;29;20067;-76
2021/06/25 03:15:23;;;;;;;5.10;3.60;;;;;;;;;;4928317;28;20067;-77
2021/06/25 03:17:49;;;;;;;4.25;3.28;;;;;;;;;;4927707;29;20070;-76
2021/06/25 03:20:16;;;;;;;4.38;3.30;;;;;;;;;;4931050;29;20071;-74
2021/06/25 03:22:43;;;;;;;6.07;3.63;;;;;;;;;;4928530;28;20055;-77
2021/06/25 03:25:10;;;;;;;5.32;3.63;;;;;;;;;;4928586;28;20059;-76
2021/06/25 03:27:37;;;;;;;4.60;3.33;;;;;;;;;;4927351;28;20066;-76
2021/06/25 03:30:05;;;;;;;4.40;3.38;;;;;;;;;;4930193;28;20507;-77
2021/06/25 03:32:32;;;;;;;4.18;3.20;;;;;;;;;;4924810;29;20059;-75
2021/06/25 03:34:58;;;;;;;4.15;3.05;;;;;;;;;;4929252;28;20063;-75
2021/06/25 03:37:25;;;;;;;6.00;3.80;;;;;;;;;;4929511;28;20479;-76
2021/06/25 03:39:52;;;;;;;4.18;2.95;;;;;;;;;;4925982;28;20059;-75
2021/06/25 03:42:18;;;;;;;4.40;3.50;;;;;;;;;;4928954;28;20472;-76
2021/06/25 03:44:45;;;;;;;4.50;3.22;;;;;;;;;;4944017;28;20067;-76
2021/06/25 03:47:11;;;;;;;5.43;3.65;;;;;;;;;;4928197;28;20067;-75
2021/06/25 03:49:37;;;;;;;4.72;3.20;;;;;;;;;;4926305;29;20079;-75
2021/06/25 03:52:04;;;;;;;4.65;3.53;;;;;;;;;;4926310;29;20536;-76
2021/06/25 03:54:31;;;;;;;4.22;3.58;;;;;;;;;;4927277;28;20063;-76
2021/06/25 03:56:57;;;;;;;4.32;3.22;;;;;;;;;;4942106;28;20503;-76
2021/06/25 03:59:23;;;;;;;5.50;3.45;;;;;;;;;;4929604;28;20075;-75
2021/06/25 04:01:52;;;;;;;5.97;3.47;;;;;;;;;;4926876;28;20066;-75
2021/06/25 04:04:18;;;;;;;3.80;3.17;;;;;;;;;;4929117;28;20130;-75
2021/06/25 04:06:45;;;;;;;5.90;3.38;;;;;;;;;;4930100;28;20063;-78
2021/06/25 04:09:11;;;;;;;5.68;3.90;;;;;;;;;;4928403;29;20075;-76
2021/06/25 04:11:38;;;;;;;4.85;3.50;;;;;;;;;;4927527;28;20508;-76
2021/06/25 04:14:04;;;;;;;5.10;3.92;;;;;;;;;;4926784;29;20074;-75
2021/06/25 04:16:31;;;;;;;8.73;4.90;;;;;;;;;;4927725;28;20476;-76
2021/06/25 04:18:57;;;;;;;6.55;3.72;;;;;;;;;;4926402;29;20051;-76
2021/06/25 04:21:24;;;;;;;6.32;3.38;;;;;;;;;;4926342;28;20068;-76
2021/06/25 04:23:50;;;;;;;5.40;3.80;;;;;;;;;;4927764;28;20093;-76
2021/06/25 04:26:17;;;;;;;6.15;3.60;;;;;;;;;;4926162;29;20063;-75
2021/06/25 04:28:43;;;;;;;7.78;4.60;;;;;;;;;;4921417;29;20060;-76
2021/06/25 04:31:10;;;;;;;6.03;4.30;;;;;;;;;;4923804;28;20071;-76
2021/06/25 04:33:39;;;;;;;5.20;3.92;;;;;;;;;;4926493;28;20150;-76
2021/06/25 04:36:05;;;;;;;6.45;4.10;;;;;;;;;;4927642;29;20071;-76
2021/06/25 04:38:32;;;;;;;6.68;4.03;;;;;;;;;;4921888;29;20087;-77
2021/06/25 04:40:58;;;;;;;6.07;3.72;;;;;;;;;;4923159;28;20075;-74
2021/06/25 04:43:25;;;;;;;7.25;3.90;;;;;;;;;;4927024;28;20071;-76
2021/06/25 04:45:52;;;;;;;6.00;3.75;;;;;;;;;;4924267;28;20059;-75
2021/06/25 04:48:18;;;;;;;5.72;3.53;;;;;;;;;;4928045;29;20067;-73
2021/06/25 04:50:45;;;;;;;5.45;3.70;;;;;;;;;;4917633;28;20072;-76
2021/06/25 04:53:12;;;;;;;5.78;3.90;;;;;;;;;;4925913;28;20046;-76
2021/06/25 04:55:41;;;;;;;4.53;3.53;;;;;;;;;;4927629;28;20047;-76
2021/06/25 04:58:09;;;;;;;6.72;3.60;;;;;;;;;;4926515;28;21930;-76
2021/06/25 05:00:36;;;;;;;6.25;3.45;;;;;;;;;;4928394;29;20155;-76
2021/06/25 05:03:02;;;;;;;6.47;3.80;;;;;;;;;;4919534;28;20501;-75
2021/06/25 05:05:29;;;;;;;5.20;3.80;;;;;;;;;;4925805;28;20095;-75
2021/06/25 05:07:55;;;;;;;3.97;2.90;;;;;;;;;;4926826;28;20139;-75
2021/06/25 05:10:22;;;;;;;3.63;2.70;;;;;;;;;;4926968;29;20067;-75
2021/06/25 05:12:48;;;;;;;3.70;2.78;;;;;;;;;;4926958;28;20500;-75
2021/06/25 05:15:15;;;;;;;5.45;3.15;;;;;;;;;;4929715;29;20074;-75
2021/06/25 05:17:41;;;;;;;8.50;3.20;;;;;;;;;;4927731;28;20055;-74
2021/06/25 05:20:08;;;;;;;5.55;3.00;;;;;;;;;;4927925;29;20082;-74
2021/06/25 05:22:34;;;;;;;5.15;3.25;;;;;;;;;;4930335;28;20510;-75
2021/06/25 05:25:01;;;;;;;4.57;3.42;;;;;;;;;;4923117;29;20059;-76
2021/06/25 05:27:27;;;;;;;3.83;3.00;;;;;;;;;;4927852;29;20067;-75
2021/06/25 05:29:54;;;;;;;4.40;2.80;;;;;;;;;;4930059;28;20047;-75
2021/06/25 05:32:20;;;;;;;3.58;2.70;;;;;;;;;;4927641;28;20040;-74
2021/06/25 05:34:47;;;;;;;4.47;3.03;;;;;;;;;;4933236;29;20051;-76
2021/06/25 05:37:13;;;;;;;4.13;2.97;;;;;;;;;;4933281;28;20044;-74
2021/06/25 05:39:40;;;;;;;4.57;2.85;;;;;;;;;;4931989;28;20531;-76
2021/06/25 05:42:07;;;;;;;3.90;2.88;;;;;;;;;;4928159;28;20060;-74
2021/06/25 05:44:33;;;;;;;4.82;3.00;;;;;;;;;;4927358;28;20109;-75
2021/06/25 05:47:00;;;;;;;4.03;3.10;;;;;;;;;;4932915;28;20428;-76
2021/06/25 05:49:27;;;;;;;4.20;2.90;;;;;;;;;;4933880;29;20478;-75
2021/06/25 05:51:53;;;;;;;3.78;3.17;;;;;;;;;;4931025;28;20055;-75
2021/06/25 05:54:19;;;;;;;3.70;3.10;;;;;;;;;;4934214;28;20063;-74
2021/06/25 05:56:46;;;;;;;3.72;3.00;;;;;;;;;;4930849;28;20060;-77
2021/06/25 05:59:13;;;;;;;4.28;3.05;;;;;;;;;;4933296;28;20051;-74
2021/06/25 06:01:39;;;;;;;3.50;2.72;;;;;;;;;;4932498;28;20051;-75
2021/06/25 06:04:06;;;;;;;4.88;2.83;;;;;;;;;;4931886;29;20583;-75
2021/06/25 06:06:32;;;;;;;3.15;2.50;;;;;;;;;;4928968;28;20048;-75
2021/06/25 06:09:01;;;;;;;5.40;2.63;;;;;;;;;;4929971;28;20118;-75
2021/06/25 06:11:28;;;;;;;4.95;3.00;;;;;;;;;;4931802;28;20509;-77
2021/06/25 06:13:54;;;;;;;4.57;3.75;;;;;;;;;;4932358;29;20075;-75
2021/06/25 06:16:21;;;;;;;4.05;3.33;;;;;;;;;;4928627;28;20515;-76
2021/06/25 06:18:48;;;;;;;4.32;2.80;;;;;;;;;;4931840;28;20063;-76
2021/06/25 06:21:15;;;;;;;4.60;2.60;;;;;;;;;;4931115;29;20134;-75
2021/06/25 06:32:19;;;;;;;3.80;2.90;;;;;;;;;;4930203;28;20087;-77
2021/06/25 06:34:47;;;;;;;5.03;2.85;;;;;;;;;;4929633;28;20115;-78
2021/06/25 06:37:17;;;;;;;4.25;2.83;;;;;;;;;;4931712;28;20036;-75
2021/06/25 06:39:44;;;;;;;3.80;3.00;;;;;;;;;;4930712;29;20047;-76
2021/06/25 06:42:10;;;;;;;4.78;3.40;;;;;;;;;;4932264;28;20067;-77
2021/06/25 06:44:37;;;;;;;5.53;3.20;;;;;;;;;;4928311;29;20134;-76
2021/06/25 06:47:03;;;;;;;5.63;3.70;;;;;;;;;;4930939;28;20487;-76
2021/06/25 06:49:30;;;;;;;7.72;3.60;;;;;;;;;;4931929;28;20106;-77
2021/06/25 06:51:56;;;;;;;7.30;3.90;;;;;;;;;;4930345;28;20067;-75
2021/06/25 06:54:22;;;;;;;4.70;3.25;;;;;;;;;;4932543;29;20409;-76
2021/06/25 06:56:49;;;;;;;15.75;4.85;;;;;;;;;;4929007;28;20056;-76
2021/06/25 06:59:15;;;;;;;7.93;4.10;;;;;;;;;;4930831;29;20072;-75
2021/06/25 07:01:41;;;;;;;4.90;3.38;;;;;;;;;;4929061;28;20110;-75
2021/06/25 07:04:08;;;;;;;5.95;3.95;;;;;;;;;;4931896;28;20689;-75
2021/06/25 07:06:34;;;;;;;7.20;3.70;;;;;;;;;;4930303;28;20067;-75
2021/06/25 07:09:01;;;;;;;7.20;3.80;;;;;;;;;;4928627;28;20079;-75
2021/06/25 07:11:27;;;;;;;7.50;3.88;;;;;;;;;;4928607;28;20475;-75
2021/06/25 07:13:54;;;;;;;5.30;3.28;;;;;;;;;;4927385;28;20059;-75
2021/06/25 07:16:20;;;;;;;5.75;3.30;;;;;;;;;;4930453;28;20071;-75
2021/06/25 07:18:47;;;;;;;5.57;3.78;;;;;;;;;;4929625;28;20071;-75
2021/06/25 07:21:13;;;;;;;5.00;3.03;;;;;;;;;;4930639;28;20119;-74
2021/06/25 07:23:40;;;;;;;7.10;3.53;;;;;;;;;;4925462;28;20093;-75
2021/06/25 07:26:06;;;;;;;5.18;3.25;;;;;;;;;;4929474;28;20554;-75
2021/06/25 07:28:32;;;;;;;6.32;3.28;;;;;;;;;;4929568;28;20074;-75
2021/06/25 07:30:59;;;;;;;8.52;3.30;;;;;;;;;;4922631;29;20058;-75
2021/06/25 07:33:25;;;;;;;5.68;3.45;;;;;;;;;;4930219;28;20063;-74
2021/06/25 07:35:53;;;;;;;6.13;3.38;;;;;;;;;;4928375;28;20151;-75
2021/06/25 07:38:20;;;;;;;4.68;2.90;;;;;;;;;;4928241;28;20071;-74
2021/06/25 07:40:46;;;;;;;5.63;3.40;;;;;;;;;;4929198;28;20126;-75
2021/06/25 07:43:12;;;;;;;4.68;2.90;;;;;;;;;;4930462;29;20484;-76
2021/06/25 07:45:39;;;;;;;4.95;3.15;;;;;;;;;;4927900;28;20055;-75
2021/06/25 07:48:06;;;;;;;4.28;2.83;;;;;;;;;;4945424;29;20071;-76
2021/06/25 07:50:32;;;;;;;4.18;2.80;;;;;;;;;;4929352;28;20074;-74
2021/06/25 07:52:58;;;;;;;3.42;2.95;;;;;;;;;;4918896;28;20138;-76
2021/06/25 07:55:25;;;;;;;4.70;3.08;;;;;;;;;;4921053;29;20118;-74
2021/06/25 07:57:51;;;;;;;4.30;2.60;;;;;;;;;;4944843;28;20563;-74
2021/06/25 08:00:18;;;;;;;6.63;2.63;;;;;;;;;;4945139;28;20142;-75
2021/06/25 08:02:44;;;;;;;3.97;2.38;;;;;;;;;;4929768;28;20441;-74
2021/06/25 08:05:11;;;;;;;3.60;2.65;;;;;;;;;;4929880;28;20068;-74
2021/06/25 08:07:37;;;;;;;4.38;2.70;;;;;;;;;;4929984;28;20063;-75
2021/06/25 08:10:05;;;;;;;4.07;3.10;;;;;;;;;;4927208;28;20432;-75
2021/06/25 08:12:32;;;;;;;8.32;3.28;;;;;;;;;;4944511;28;20068;-75
2021/06/25 08:14:58;;;;;;;3.40;2.70;;;;;;;;;;4942915;28;20487;-75
2021/06/25 08:17:26;;;;;;;6.63;3.08;;;;;;;;;;4927889;28;20059;-76
2021/06/25 08:19:53;;;;;;;4.88;3.03;;;;;;;;;;4927539;29;20126;-75
2021/06/25 08:22:20;;;;;;;3.75;2.90;;;;;;;;;;4928233;28;20059;-79
2021/06/25 08:24:47;;;;;;;4.40;2.90;;;;;;;;;;4926882;28;20495;-77
2021/06/25 08:27:14;;;;;;;4.50;3.20;;;;;;;;;;4929145;28;20066;-78
2021/06/25 08:29:40;;;;;;;4.55;2.90;;;;;;;;;;4929452;28;20071;-78
2021/06/25 08:32:07;;;;;;;6.80;3.30;;;;;;;;;;4929639;28;20071;-79
2021/06/25 08:34:33;;;;;;;5.32;3.60;;;;;;;;;;4929336;28;20043;-76
2021/06/25 08:37:00;;;;;;;4.68;3.22;;;;;;;;;;4928106;28;20055;-79
2021/06/25 08:39:26;;;;;;;4.15;3.00;;;;;;;;;;4927874;28;20161;-77
2021/06/25 08:41:53;;;;;;;5.47;3.17;;;;;;;;;;4928686;28;20071;-77
2021/06/25 08:44:20;;;;;;;3.88;3.08;;;;;;;;;;4930186;29;20066;-78
2021/06/25 08:46:47;;;;;;;3.67;3.00;;;;;;;;;;4926611;28;20805;-78
2021/06/25 08:49:17;;;;;;;5.25;3.55;;;;;;;;;;4928107;28;20063;-76
2021/06/25 08:51:44;;;;;;;7.07;3.83;;;;;;;;;;4942246;28;20110;-79
2021/06/25 08:54:11;;;;;;;7.28;3.53;;;;;;;;;;4930719;28;20063;-78
2021/06/25 08:56:37;;;;;;;6.35;3.17;;;;;;;;;;4942540;28;20110;-80
2021/06/25 08:59:04;;;;;;;5.43;3.60;;;;;;;;;;4928999;28;20079;-79
2021/06/25 09:01:36;;;;;;;8.77;3.60;;;;;;;;;;4930324;28;20472;-78
2021/06/25 09:04:04;;;;;;;6.07;3.95;;;;;;;;;;4928495;28;21617;-76
2021/06/25 09:06:33;;;;;;;4.47;3.67;;;;;;;;;;4932210;28;20087;-77
2021/06/25 09:09:14;;;;;;;5.60;3.80;;;;;;;;;;4930530;28;20593;-76
2021/06/25 09:11:41;;;;;;;10.23;3.95;;;;;;;;;;4931730;28;20083;-78
2021/06/25 09:14:08;;;;;;;6.20;4.25;;;;;;;;;;4933271;28;20503;-77
2021/06/25 09:16:35;;;;;;;10.18;4.18;;;;;;;;;;4935507;28;20063;-77
2021/06/25 09:19:09;;;;;;;6.38;3.75;;;;;;;;;;4931739;28;20095;-76
2021/06/25 09:21:37;;;;;;;6.15;3.92;;;;;;;;;;4932480;28;20063;-77
2021/06/25 09:24:17;;;;;;;6.55;3.85;;;;;;;;;;4934227;28;20117;-76
2021/06/25 09:26:43;;;;;;;7.43;3.97;;;;;;;;;;4930171;28;20511;-76
2021/06/25 09:29:13;;;;;;;5.38;3.40;;;;;;;;;;4929106;28;20682;-74
2021/06/25 09:31:39;;;;;;;5.25;3.90;;;;;;;;;;4930170;28;20043;-75
2021/06/25 09:34:08;;;;;;;7.03;4.07;;;;;;;;;;4930751;28;20123;-76
2021/06/25 09:36:39;;;;;;;5.53;3.97;;;;;;;;;;4929887;28;20064;-76
2021/06/25 09:39:10;;;;;;;5.70;3.90;;;;;;;;;;4929589;29;21417;-74
2021/06/25 09:41:37;;;;;;;;;;;;;;;;;;4932178;28;20474;-75
2021/06/25 09:44:10;;;;;;;8.10;4.57;;;;;;;;;;4930920;29;19943;-76
2021/06/25 09:46:37;;;;;;;10.35;4.00;;;;;;;;;;4933116;29;20091;-76
2021/06/25 09:49:08;;;;;;;9.38;3.78;;;;;;;;;;4931102;28;20103;-76
2021/06/25 09:51:35;;;;;;;6.68;3.90;;;;;;;;;;4929789;28;20106;-76
2021/06/25 09:54:03;;;;;;;4.65;3.85;;;;;;;;;;4929126;28;20460;-77
2021/06/25 09:56:30;;;;;;;5.38;3.60;;;;;;;;;;4932605;28;20495;-78
2021/06/25 09:59:22;;;;;;;8.35;4.10;;;;;;;;;;4930258;28;20075;-77
2021/06/25 10:01:48;;;;;;;7.65;3.90;;;;;;;;;;4930335;28;20106;-77
2021/06/25 10:04:15;;;;;;;10.23;4.57;;;;;;;;;;4931720;28;20125;-75
2021/06/25 10:06:41;;;;;;;6.13;3.78;;;;;;;;;;4931689;28;20036;-75
2021/06/25 10:09:08;;;;;;;5.28;3.85;;;;;;;;;;4932044;28;20598;-76
2021/06/25 10:11:40;;;;;;;7.38;4.00;;;;;;;;;;4925277;29;20075;-77
2021/06/25 10:14:07;;;;;;;7.82;4.20;;;;;;;;;;4916968;28;20064;-77
2021/06/25 10:16:33;;;;;;;7.50;4.60;;;;;;;;;;4931218;28;20068;-76
2021/06/25 10:19:00;;;;;;;8.80;4.20;;;;;;;;;;4925964;28;20520;-75
2021/06/25 10:21:27;;;;;;;5.55;4.35;;;;;;;;;;4928596;28;20063;-76
2021/06/25 10:23:56;;;;;;;6.68;4.63;;;;;;;;;;4929045;28;20063;-76
2021/06/25 10:26:23;;;;;;;7.55;4.07;;;;;;;;;;4945792;29;20071;-76
2021/06/25 10:28:51;;;;;;;11.18;4.63;;;;;;;;;;4930582;29;20043;-76
2021/06/25 10:31:20;;;;;;;6.35;4.35;;;;;;;;;;4922471;29;20148;-75
2021/06/25 10:33:50;;;;;;;7.50;4.20;;;;;;;;;;4929599;28;20046;-77
2021/06/25 10:36:19;;;;;;;5.63;4.22;;;;;;;;;;4926251;28;20059;-78
2021/06/25 10:38:46;;;;;;;6.68;4.75;;;;;;;;;;4938904;28;20075;-76
2021/06/25 10:41:14;;;;;;;5.53;4.38;;;;;;;;;;4930726;29;20071;-77
2021/06/25 10:43:40;;;;;;;4.97;3.75;;;;;;;;;;4924869;28;20091;-75
2021/06/25 10:46:06;;;;;;;6.78;4.20;;;;;;;;;;4925492;28;20106;-76
2021/06/25 10:48:38;;;;;;;7.63;4.30;;;;;;;;;;4932161;28;20558;-75
2021/06/25 10:51:22;;;;;;;7.22;4.30;;;;;;;;;;4928471;28;21698;-77
2021/06/25 10:54:09;;;;;;;7.47;4.38;;;;;;;;;;4929956;29;20439;-76
2021/06/25 10:56:39;;;;;;;7.55;4.63;;;;;;;;;;4931478;28;20063;-78
2021/06/25 10:59:23;;;;;;;10.25;5.63;;;;;;;;;;4929056;28;20581;-78
2021/06/25 11:01:50;;;;;;;8.07;4.80;;;;;;;;;;4943949;28;20044;-77
2021/06/25 11:04:39;;;;;;;8.38;4.80;;;;;;;;;;4931082;28;20075;-79
2021/06/25 11:07:13;;;;;;;8.20;5.00;;;;;;;;;;4926778;28;20326;-77
2021/06/25 11:09:52;;;;;;;8.05;5.20;;;;;;;;;;4926806;28;20148;-79
2021/06/25 11:12:48;;;;;;;9.25;5.72;;;;;;;;;;4929034;29;20035;-75
2021/06/25 11:15:31;;;;;;;8.93;4.80;;;;;;;;;;4918731;28;20043;-75
2021/06/25 11:18:03;;;;;;;7.18;4.80;;;;;;;;;;4921485;28;20062;-77
2021/06/25 11:20:40;;;;;;;6.80;4.30;;;;;;;;;;4934718;28;20048;-77
2021/06/25 11:23:26;;;;;;;8.65;4.60;;;;;;;;;;4926438;29;20461;-75
2021/06/25 11:26:00;;;;;;;9.10;4.95;;;;;;;;;;4926940;28;20447;-77
2021/06/25 11:28:36;;;;;;;7.07;4.80;;;;;;;;;;4927348;28;20124;-76
2021/06/25 11:31:12;;;;;;;8.40;5.25;;;;;;;;;;4924000;29;20058;-76
2021/06/25 11:36:15;;;;;;;7.10;4.82;;;;;;;;;;4927634;28;21340;-76
2021/06/25 11:38:57;;;;;;;7.75;4.82;;;;;;;;;;4920199;28;20043;-77
2021/06/25 11:41:30;;;;;;;5.75;4.28;;;;;;;;;;4927840;28;20071;-78
2021/06/25 11:44:01;;;;;;;7.65;4.63;;;;;;;;;;4919891;29;20040;-78
2021/06/25 11:46:28;;;;;;;8.47;4.83;;;;;;;;;;4930615;29;20122;-77
2021/06/25 11:49:00;;;;;;;8.60;4.60;;;;;;;;;;4930817;29;21183;-76
2021/06/25 11:51:40;;;;;;;8.52;5.18;;;;;;;;;;4928572;29;20035;-76
2021/06/25 11:54:11;;;;;;;6.65;5.22;;;;;;;;;;4924416;28;20060;-76
2021/06/25 11:56:44;;;;;;;8.35;5.50;;;;;;;;;;4926374;29;20071;-78
2021/06/25 11:59:14;;;;;;;6.22;5.15;;;;;;;;;;4928356;28;20602;-77
2021/06/25 12:01:51;;;;;;;6.50;4.90;;;;;;;;;;4938209;28;20471;-77
2021/06/25 12:04:33;;;;;;;8.60;5.20;;;;;;;;;;4936279;28;20456;-77
2021/06/25 12:07:00;;;;;;;7.32;4.80;;;;;;;;;;4917367;29;20099;-76
2021/06/25 12:09:45;;;;;;;7.65;5.70;;;;;;;;;;4928416;29;20135;-77
2021/06/25 12:12:18;;;;;;;8.90;5.65;;;;;;;;;;4922854;28;20031;-77
2021/06/25 12:14:46;;;;;;;8.10;5.15;;;;;;;;;;4925968;28;20063;-77
2021/06/25 12:17:28;;;;;;;7.43;5.40;;;;;;;;;;4928952;29;20083;-78
2021/06/25 12:20:02;;;;;;;8.80;5.10;;;;;;;;;;4929324;28;20059;-77
2021/06/25 12:22:28;;;;;;;7.18;5.03;;;;;;;;;;4934544;29;20082;-77
2021/06/25 12:24:57;;;;;;;6.85;5.15;;;;;;;;;;4914345;29;20036;-76
2021/06/25 12:27:43;;;;;;;7.05;5.15;;;;;;;;;;4926123;29;20530;-77
2021/06/25 12:30:18;;;;;;;7.93;5.40;;;;;;;;;;4926483;29;20112;-77
2021/06/25 12:33:01;;;;;;;6.40;4.80;;;;;;;;;;4921516;28;20040;-77
2021/06/25 12:35:35;;;;;;;7.45;4.75;;;;;;;;;;4945829;28;20063;-77
2021/06/25 12:38:07;;;;;;;8.77;5.30;;;;;;;;;;4917132;28;20194;-79
2021/06/25 12:40:37;;;;;;;7.10;4.80;;;;;;;;;;4934570;29;20088;-77
2021/06/25 12:43:07;;;;;;;7.60;5.20;;;;;;;;;;4929075;28;21554;-77
2021/06/25 12:45:41;;;;;;;7.68;5.60;;;;;;;;;;4928229;28;20853;-77
2021/06/25 12:48:12;;;;;;;8.18;5.72;;;;;;;;;;4943121;29;20040;-77
2021/06/25 12:50:41;;;;;;;7.55;4.72;;;;;;;;;;4941847;28;20133;-76
2021/06/25 12:53:19;;;;;;;6.82;5.40;;;;;;;;;;4925480;29;20023;-74
2021/06/25 12:55:46;;;;;;;8.25;4.80;;;;;;;;;;4933257;28;20091;-74
2021/06/25 12:58:14;;;;;;;7.68;5.03;;;;;;;;;;4933308;28;20036;-76
2021/06/25 13:00:41;;;;;;;5.65;4.97;;;;;;;;;;4937389;28;20650;-75
2021/06/25 13:03:09;;;;;;;6.40;4.47;;;;;;;;;;4934540;29;20111;-74
2021/06/25 13:05:36;;;;;;;8.98;4.78;;;;;;;;;;4950105;29;20023;-77
2021/06/25 13:08:13;;;;;;;7.10;4.65;;;;;;;;;;4940758;28;20044;-76
2021/06/25 13:10:46;;;;;;;7.80;4.60;;;;;;;;;;4933819;29;20036;-78
2021/06/25 13:13:27;;;;;;;7.03;4.93;;;;;;;;;;4925740;29;20055;-83
2021/06/25 13:15:59;;;;;;;6.72;4.90;;;;;;;;;;4926030;28;20056;-75
2021/06/25 13:18:27;;;;;;;7.80;4.60;;;;;;;;;;4926735;28;20039;-76
2021/06/25 13:21:12;;;;;;;7.53;4.90;;;;;;;;;;4917767;29;20563;-77
2021/06/25 13:23:42;;;;;;;7.53;5.10;;;;;;;;;;4934203;28;20523;-76
2021/06/25 13:26:24;;;;;;;8.10;5.10;;;;;;;;;;4921906;28;21212;-77
2021/06/25 13:29:03;;;;;;;7.32;4.90;;;;;;;;;;4921569;29;20070;-78
2021/06/25 13:31:29;;;;;;;7.05;4.65;;;;;;;;;;4926427;29;20052;-77
2021/06/25 13:33:55;;;;;;;7.20;5.30;;;;;;;;;;4925286;28;20051;-76
2021/06/25 13:36:22;;;;;;;7.32;5.30;;;;;;;;;;4927056;28;20063;-77
2021/06/25 13:38:48;;;;;;;7.60;5.00;;;;;;;;;;4927719;28;20074;-77
2021/06/25 13:41:24;;;;;;;8.48;5.47;;;;;;;;;;4927549;28;20075;-76
2021/06/25 13:43:57;;;;;;;6.68;5.18;;;;;;;;;;4927571;28;20056;-76
2021/06/25 13:46:27;;;;;;;8.13;5.00;;;;;;;;;;4928103;28;20060;-76
2021/06/25 13:49:01;;;;;;;11.15;5.60;;;;;;;;;;4928522;28;20059;-77
2021/06/25 13:51:28;;;;;;;7.28;5.22;;;;;;;;;;4934651;28;20096;-83
2021/06/25 13:53:55;;;;;;;10.10;5.07;;;;;;;;;;4937502;29;20160;-77
2021/06/25 13:56:26;;;;;;;8.20;4.75;;;;;;;;;;4937363;28;20036;-78
2021/06/25 13:58:52;;;;;;;7.72;5.25;;;;;;;;;;4949175;28;20036;-79
2021/06/25 14:01:21;;;;;;;11.65;5.63;;;;;;;;;;4937876;29;20044;-75
2021/06/25 14:04:17;;;;;;;10.18;4.93;;;;;;;;;;4928139;28;20066;-77
2021/06/25 14:06:51;;;;;;;8.05;4.65;;;;;;;;;;4929804;29;20067;-76
2021/06/25 14:09:22;;;;;;;7.72;5.18;;;;;;;;;;4927749;28;20095;-79
2021/06/25 14:11:51;;;;;;;7.38;5.07;;;;;;;;;;4926797;29;20054;-78
2021/06/25 14:14:30;;;;;;;7.05;4.95;;;;;;;;;;4934284;28;20094;-78
2021/06/25 14:17:01;;;;;;;6.80;5.28;;;;;;;;;;4926515;28;20756;-75
2021/06/25 14:19:36;;;;;;;7.88;4.97;;;;;;;;;;4928255;28;20120;-76
2021/06/25 14:22:04;;;;;;;8.15;4.80;;;;;;;;;;4929258;28;20050;-76
2021/06/25 14:24:33;;;;;;;6.05;4.70;;;;;;;;;;4914621;29;20066;-74
2021/06/25 14:27:00;;;;;;;7.35;4.80;;;;;;;;;;4925941;28;20456;-76
2021/06/25 14:29:27;;;;;;;9.13;5.00;;;;;;;;;;4928215;28;20653;-74
2021/06/25 14:31:59;;;;;;;8.35;4.63;;;;;;;;;;4924759;28;20032;-78
2021/06/25 14:34:29;;;;;;;6.30;4.50;;;;;;;;;;4925720;29;20071;-75
2021/06/25 14:36:55;;;;;;;7.45;5.00;;;;;;;;;;4925222;28;20032;-76
2021/06/25 14:39:24;;;;;;;7.03;4.80;;;;;;;;;;4926342;28;20499;-76
2021/06/25 14:41:53;;;;;;;7.10;4.30;;;;;;;;;;4926894;28;20079;-76
2021/06/25 14:44:19;;;;;;;8.35;4.65;;;;;;;;;;4927287;28;20107;-76
2021/06/25 14:46:46;;;;;;;7.15;5.13;;;;;;;;;;4925901;28;20059;-79
2021/06/25 14:49:12;;;;;;;7.63;4.80;;;;;;;;;;4926371;28;20130;-76
2021/06/25 14:51:41;;;;;;;9.50;5.03;;;;;;;;;;4926107;29;20079;-80
2021/06/25 14:54:08;;;;;;;7.45;5.18;;;;;;;;;;4925713;28;20054;-79
2021/06/25 14:56:34;;;;;;;6.95;4.82;;;;;;;;;;4926270;28;20063;-76
2021/06/25 14:59:04;;;;;;;8.65;4.70;;;;;;;;;;4915187;28;20523;-77
2021/06/25 15:01:30;;;;;;;6.90;4.57;;;;;;;;;;4925167;28;20044;-78
2021/06/25 15:03:57;;;;;;;8.70;4.97;;;;;;;;;;4922605;29;20118;-77